AXM6316 WMKK-WMKL
Flight info
| Callsign | AXM6316 |
|---|---|
| Flight time | 0h 45m |
| Altitude | 32000 |
| Route | ATIMU1D ATIMU Y506 VPG W525 KAPKO KAPKO1E |
| Aircraft | A320/M-SDE3FGHIRWY/LB1 |
Departure
| Time | 2026-04-25 19:46 |
|---|---|
| Airport | Kuala Lumpur International Airport (WMKK) |
Arrival
| Time | 2026-04-25 20:31 |
|---|---|
| Airport | Langkawi International Airport (WMKL) |
| Time | Latitude | Longitude | Altitude | Speed | Heading |
|---|---|---|---|---|---|
| 2026-04-25 19:27 | 2.74750 | 101.71737 | 73 ft | 0 kts | 146° |
| 2026-04-25 19:36 | 2.74762 | 101.71730 | 68 ft | 4 kts | 146° |
| 2026-04-25 19:37 | 2.74783 | 101.71716 | 73 ft | 4 kts | 146° |
| 2026-04-25 19:37 | 2.74803 | 101.71702 | 67 ft | 4 kts | 146° |
| 2026-04-25 19:37 | 2.74820 | 101.71684 | 64 ft | 4 kts | 99° |
| 2026-04-25 19:37 | 2.74817 | 101.71661 | 62 ft | 0 kts | 49° |
| 2026-04-25 19:38 | 2.74837 | 101.71674 | 65 ft | 4 kts | 30° |
| 2026-04-25 19:38 | 2.74844 | 101.71684 | 73 ft | 0 kts | 56° |
| 2026-04-25 19:42 | 2.74860 | 101.71707 | 69 ft | 13 kts | 56° |
| 2026-04-25 19:42 | 2.74915 | 101.71790 | 70 ft | 14 kts | 56° |
| 2026-04-25 19:43 | 2.74961 | 101.71862 | 77 ft | 11 kts | 68° |
| 2026-04-25 19:43 | 2.74933 | 101.71911 | 78 ft | 7 kts | 142° |
| 2026-04-25 19:43 | 2.74900 | 101.71934 | 78 ft | 5 kts | 149° |
| 2026-04-25 19:43 | 2.74830 | 101.71979 | 78 ft | 17 kts | 147° |
| 2026-04-25 19:44 | 2.74750 | 101.72058 | 82 ft | 14 kts | 98° |
| 2026-04-25 19:44 | 2.74797 | 101.72134 | 72 ft | 12 kts | 54° |
| 2026-04-25 19:44 | 2.74854 | 101.72179 | 78 ft | 10 kts | 13° |
| 2026-04-25 19:44 | 2.74892 | 101.72169 | 72 ft | 0 kts | 329° |
| 2026-04-25 19:45 | 2.74893 | 101.72168 | 73 ft | 2 kts | 329° |
| 2026-04-25 19:45 | 2.75061 | 101.72058 | 71 ft | 65 kts | 326° |
| 2026-04-25 19:45 | 2.75628 | 101.71676 | 73 ft | 128 kts | 326° |
| 2026-04-25 19:45 | 2.76512 | 101.71079 | 84 ft | 175 kts | 327° |
| 2026-04-25 19:46 | 2.77525 | 101.70404 | 694 ft | 174 kts | 327° |
| 2026-04-25 19:46 | 2.78535 | 101.69729 | 1344 ft | 175 kts | 327° |
| 2026-04-25 19:46 | 2.79584 | 101.69037 | 1737 ft | 192 kts | 332° |
| 2026-04-25 19:46 | 2.80876 | 101.68519 | 2052 ft | 210 kts | 342° |
| 2026-04-25 19:47 | 2.82340 | 101.68006 | 2316 ft | 236 kts | 343° |
| 2026-04-25 19:47 | 2.83971 | 101.67442 | 2697 ft | 260 kts | 343° |
| 2026-04-25 19:47 | 2.85722 | 101.66832 | 3385 ft | 270 kts | 343° |
| 2026-04-25 19:47 | 2.87510 | 101.66200 | 4225 ft | 275 kts | 343° |
| 2026-04-25 19:48 | 2.89301 | 101.65560 | 5037 ft | 279 kts | 342° |
| 2026-04-25 19:48 | 2.91132 | 101.64902 | 5854 ft | 282 kts | 342° |
| 2026-04-25 19:48 | 2.92994 | 101.64240 | 6652 ft | 286 kts | 343° |
| 2026-04-25 19:48 | 2.94862 | 101.63523 | 7418 ft | 291 kts | 335° |
| 2026-04-25 19:49 | 2.96555 | 101.62378 | 8177 ft | 297 kts | 319° |
| 2026-04-25 19:49 | 2.97051 | 101.61888 | 8438 ft | 298 kts | 313° |
| 2026-04-25 19:49 | 2.99139 | 101.59108 | 9745 ft | 304 kts | 307° |
| 2026-04-25 19:49 | 3.00402 | 101.57380 | 10322 ft | 313 kts | 307° |
| 2026-04-25 19:50 | 3.03151 | 101.53639 | 10908 ft | 348 kts | 307° |
| 2026-04-25 19:50 | 3.04594 | 101.51674 | 11515 ft | 353 kts | 307° |
| 2026-04-25 19:50 | 3.06061 | 101.49671 | 12159 ft | 357 kts | 307° |
| 2026-04-25 19:51 | 3.07538 | 101.47654 | 12785 ft | 362 kts | 307° |
| 2026-04-25 19:51 | 3.09032 | 101.45610 | 13411 ft | 366 kts | 308° |
| 2026-04-25 19:51 | 3.10543 | 101.43544 | 13987 ft | 370 kts | 308° |
| 2026-04-25 19:51 | 3.12070 | 101.41457 | 14539 ft | 373 kts | 308° |
| 2026-04-25 19:52 | 3.13608 | 101.39361 | 15098 ft | 376 kts | 308° |
| 2026-04-25 19:52 | 3.15162 | 101.37248 | 15650 ft | 379 kts | 309° |
| 2026-04-25 19:52 | 3.16925 | 101.35272 | 16188 ft | 380 kts | 320° |
| 2026-04-25 19:52 | 3.18988 | 101.33641 | 16727 ft | 381 kts | 326° |
| 2026-04-25 19:53 | 3.21134 | 101.32060 | 17261 ft | 383 kts | 326° |
| 2026-04-25 19:53 | 3.23288 | 101.30469 | 17802 ft | 386 kts | 326° |
| 2026-04-25 19:53 | 3.25430 | 101.28887 | 18288 ft | 389 kts | 326° |
| 2026-04-25 19:53 | 3.27619 | 101.27274 | 18740 ft | 392 kts | 326° |
| 2026-04-25 19:54 | 3.29824 | 101.25649 | 19189 ft | 395 kts | 326° |
| 2026-04-25 19:54 | 3.32054 | 101.24005 | 19645 ft | 398 kts | 326° |
| 2026-04-25 19:54 | 3.34289 | 101.22356 | 20098 ft | 401 kts | 326° |
| 2026-04-25 19:54 | 3.35047 | 101.21796 | 20250 ft | 402 kts | 326° |
| 2026-04-25 19:55 | 3.38815 | 101.19021 | 21005 ft | 406 kts | 326° |
| 2026-04-25 19:55 | 3.41101 | 101.17337 | 21459 ft | 409 kts | 326° |
| 2026-04-25 19:55 | 3.43402 | 101.15644 | 21909 ft | 412 kts | 326° |
| 2026-04-25 19:55 | 3.45723 | 101.13934 | 22357 ft | 415 kts | 326° |
| 2026-04-25 19:56 | 3.48055 | 101.12217 | 22804 ft | 418 kts | 326° |
| 2026-04-25 19:56 | 3.50405 | 101.10486 | 23245 ft | 421 kts | 326° |
| 2026-04-25 19:56 | 3.52769 | 101.08740 | 23630 ft | 424 kts | 326° |
| 2026-04-25 19:56 | 3.55146 | 101.06984 | 23990 ft | 426 kts | 326° |
| 2026-04-25 19:57 | 3.57534 | 101.05224 | 24357 ft | 428 kts | 326° |
| 2026-04-25 19:57 | 3.59936 | 101.03451 | 24709 ft | 430 kts | 325° |
| 2026-04-25 19:57 | 3.62348 | 101.01669 | 25065 ft | 432 kts | 325° |
| 2026-04-25 19:57 | 3.64770 | 100.99881 | 25408 ft | 434 kts | 325° |
| 2026-04-25 19:58 | 3.67260 | 100.98180 | 25746 ft | 434 kts | 332° |
| 2026-04-25 19:58 | 3.69974 | 100.96854 | 26079 ft | 434 kts | 338° |
| 2026-04-25 19:58 | 3.72742 | 100.95623 | 26402 ft | 436 kts | 338° |
| 2026-04-25 19:58 | 3.75522 | 100.94389 | 26734 ft | 438 kts | 338° |
| 2026-04-25 19:59 | 3.78316 | 100.93150 | 27049 ft | 440 kts | 338° |
| 2026-04-25 19:59 | 3.81120 | 100.91906 | 27364 ft | 441 kts | 338° |
| 2026-04-25 19:59 | 3.83905 | 100.90669 | 27668 ft | 443 kts | 337° |
| 2026-04-25 19:59 | 3.86717 | 100.89420 | 27973 ft | 445 kts | 337° |
| 2026-04-25 20:00 | 3.89559 | 100.88157 | 28273 ft | 447 kts | 337° |
| 2026-04-25 20:00 | 3.90525 | 100.87727 | 28385 ft | 447 kts | 337° |
| 2026-04-25 20:00 | 3.95262 | 100.85613 | 28866 ft | 450 kts | 337° |
| 2026-04-25 20:00 | 3.98122 | 100.84335 | 29153 ft | 452 kts | 337° |
| 2026-04-25 20:01 | 4.03885 | 100.81764 | 29711 ft | 455 kts | 337° |
| 2026-04-25 20:01 | 4.06783 | 100.80473 | 29965 ft | 457 kts | 337° |
| 2026-04-25 20:01 | 4.09694 | 100.79180 | 30191 ft | 458 kts | 337° |
| 2026-04-25 20:02 | 4.12614 | 100.77882 | 30415 ft | 460 kts | 337° |
| 2026-04-25 20:02 | 4.14587 | 100.77004 | 30553 ft | 461 kts | 337° |
| 2026-04-25 20:02 | 4.17521 | 100.75699 | 30772 ft | 462 kts | 337° |
| 2026-04-25 20:02 | 4.20422 | 100.74403 | 30980 ft | 463 kts | 337° |
| 2026-04-25 20:03 | 4.23367 | 100.73082 | 31183 ft | 464 kts | 337° |
| 2026-04-25 20:03 | 4.26316 | 100.71757 | 31446 ft | 464 kts | 336° |
| 2026-04-25 20:03 | 4.29259 | 100.70436 | 31738 ft | 463 kts | 337° |
| 2026-04-25 20:03 | 4.32198 | 100.69118 | 31850 ft | 461 kts | 336° |
| 2026-04-25 20:04 | 4.35074 | 100.67826 | 31870 ft | 445 kts | 336° |
| 2026-04-25 20:04 | 4.37873 | 100.66567 | 31871 ft | 438 kts | 337° |
| 2026-04-25 20:04 | 4.43409 | 100.64073 | 31870 ft | 434 kts | 337° |
| 2026-04-25 20:05 | 4.48957 | 100.61652 | 31871 ft | 434 kts | 337° |
| 2026-04-25 20:05 | 4.54522 | 100.59307 | 31868 ft | 435 kts | 338° |
| 2026-04-25 20:06 | 4.60096 | 100.56953 | 31875 ft | 435 kts | 338° |
| 2026-04-25 20:06 | 4.65668 | 100.54580 | 31880 ft | 434 kts | 338° |
| 2026-04-25 20:07 | 4.71215 | 100.52207 | 31884 ft | 433 kts | 337° |
| 2026-04-25 20:07 | 4.76709 | 100.49849 | 31883 ft | 433 kts | 337° |
| 2026-04-25 20:08 | 4.82241 | 100.47477 | 31875 ft | 432 kts | 338° |
| 2026-04-25 20:08 | 4.87724 | 100.45009 | 31868 ft | 432 kts | 335° |
| 2026-04-25 20:09 | 4.93200 | 100.42403 | 31004 ft | 442 kts | 335° |
| 2026-04-25 20:09 | 4.95980 | 100.41076 | 30504 ft | 438 kts | 335° |
| 2026-04-25 20:09 | 4.98714 | 100.39775 | 30007 ft | 435 kts | 336° |
| 2026-04-25 20:10 | 5.01449 | 100.38483 | 29463 ft | 432 kts | 336° |
| 2026-04-25 20:10 | 5.04146 | 100.37215 | 28981 ft | 426 kts | 336° |
| 2026-04-25 20:10 | 5.06820 | 100.35966 | 28501 ft | 422 kts | 336° |
| 2026-04-25 20:10 | 5.09471 | 100.34729 | 28049 ft | 417 kts | 336° |
| 2026-04-25 20:11 | 5.12097 | 100.33504 | 27591 ft | 413 kts | 336° |
| 2026-04-25 20:11 | 5.14696 | 100.32288 | 27114 ft | 410 kts | 336° |
| 2026-04-25 20:11 | 5.17262 | 100.31086 | 26654 ft | 407 kts | 336° |
| 2026-04-25 20:11 | 5.19824 | 100.29882 | 26179 ft | 405 kts | 336° |
| 2026-04-25 20:12 | 5.22336 | 100.28702 | 25716 ft | 403 kts | 336° |
| 2026-04-25 20:12 | 5.24870 | 100.27513 | 25230 ft | 402 kts | 336° |
| 2026-04-25 20:12 | 5.27400 | 100.26330 | 24743 ft | 401 kts | 336° |
| 2026-04-25 20:12 | 5.29101 | 100.25534 | 24407 ft | 401 kts | 336° |
| 2026-04-25 20:13 | 5.32448 | 100.23949 | 23728 ft | 401 kts | 336° |
| 2026-04-25 20:13 | 5.34955 | 100.22745 | 23165 ft | 402 kts | 336° |
| 2026-04-25 20:13 | 5.37474 | 100.21528 | 22661 ft | 399 kts | 336° |
| 2026-04-25 20:13 | 5.39978 | 100.20319 | 22148 ft | 397 kts | 336° |
| 2026-04-25 20:14 | 5.42439 | 100.19135 | 21774 ft | 392 kts | 336° |
| 2026-04-25 20:14 | 5.44905 | 100.17952 | 21298 ft | 391 kts | 336° |
| 2026-04-25 20:14 | 5.47340 | 100.16785 | 20909 ft | 386 kts | 336° |
| 2026-04-25 20:14 | 5.49771 | 100.15622 | 20435 ft | 385 kts | 336° |
| 2026-04-25 20:15 | 5.52169 | 100.14479 | 19990 ft | 381 kts | 336° |
| 2026-04-25 20:15 | 5.54550 | 100.13344 | 19267 ft | 375 kts | 336° |
| 2026-04-25 20:15 | 5.56871 | 100.12235 | 18794 ft | 363 kts | 336° |
| 2026-04-25 20:15 | 5.59111 | 100.11161 | 18360 ft | 352 kts | 336° |
| 2026-04-25 20:16 | 5.61297 | 100.10111 | 17899 ft | 342 kts | 336° |
| 2026-04-25 20:16 | 5.63405 | 100.09098 | 17473 ft | 330 kts | 337° |
| 2026-04-25 20:16 | 5.65417 | 100.08131 | 17089 ft | 320 kts | 337° |
| 2026-04-25 20:16 | 5.67409 | 100.07177 | 16709 ft | 315 kts | 337° |
| 2026-04-25 20:17 | 5.69391 | 100.06228 | 16336 ft | 314 kts | 337° |
| 2026-04-25 20:17 | 5.71363 | 100.05283 | 15956 ft | 313 kts | 337° |
| 2026-04-25 20:17 | 5.73329 | 100.04339 | 15588 ft | 313 kts | 337° |
| 2026-04-25 20:17 | 5.75299 | 100.03397 | 15207 ft | 314 kts | 337° |
| 2026-04-25 20:18 | 5.77279 | 100.02451 | 14843 ft | 316 kts | 337° |
| 2026-04-25 20:18 | 5.79267 | 100.01500 | 14466 ft | 317 kts | 337° |
| 2026-04-25 20:18 | 5.81265 | 100.00543 | 14090 ft | 319 kts | 337° |
| 2026-04-25 20:18 | 5.83264 | 99.99588 | 13720 ft | 320 kts | 337° |
| 2026-04-25 20:19 | 5.85279 | 99.98627 | 13295 ft | 321 kts | 337° |
| 2026-04-25 20:19 | 5.87296 | 99.97662 | 12902 ft | 321 kts | 336° |
| 2026-04-25 20:19 | 5.89307 | 99.96696 | 12516 ft | 320 kts | 336° |
| 2026-04-25 20:19 | 5.91315 | 99.95729 | 12118 ft | 320 kts | 336° |
| 2026-04-25 20:20 | 5.93321 | 99.94764 | 11725 ft | 319 kts | 336° |
| 2026-04-25 20:20 | 5.95203 | 99.93582 | 11423 ft | 318 kts | 321° |
| 2026-04-25 20:20 | 5.96701 | 99.92003 | 11066 ft | 318 kts | 307° |
| 2026-04-25 20:20 | 5.97884 | 99.90126 | 10669 ft | 318 kts | 302° |
| 2026-04-25 20:21 | 5.99042 | 99.88232 | 10302 ft | 317 kts | 302° |
| 2026-04-25 20:21 | 6.00184 | 99.86375 | 10077 ft | 310 kts | 302° |
| 2026-04-25 20:21 | 6.01318 | 99.84536 | 9712 ft | 309 kts | 302° |
| 2026-04-25 20:21 | 6.02449 | 99.82705 | 9322 ft | 307 kts | 302° |
| 2026-04-25 20:22 | 6.03572 | 99.80884 | 8936 ft | 306 kts | 302° |
| 2026-04-25 20:22 | 6.04314 | 99.79682 | 8675 ft | 305 kts | 303° |
| 2026-04-25 20:22 | 6.05805 | 99.77265 | 8153 ft | 302 kts | 303° |
| 2026-04-25 20:22 | 6.06898 | 99.75488 | 7534 ft | 298 kts | 302° |
| 2026-04-25 20:23 | 6.07983 | 99.73719 | 6882 ft | 297 kts | 302° |
| 2026-04-25 20:23 | 6.09067 | 99.71952 | 6496 ft | 293 kts | 302° |
| 2026-04-25 20:23 | 6.10125 | 99.70231 | 5929 ft | 287 kts | 302° |
| 2026-04-25 20:23 | 6.11183 | 99.68563 | 5458 ft | 278 kts | 308° |
| 2026-04-25 20:24 | 6.12519 | 99.67165 | 5029 ft | 277 kts | 323° |
| 2026-04-25 20:24 | 6.14062 | 99.65980 | 4386 ft | 285 kts | 317° |
| 2026-04-25 20:24 | 6.15131 | 99.64273 | 3700 ft | 297 kts | 286° |
| 2026-04-25 20:24 | 6.15220 | 99.62254 | 3501 ft | 285 kts | 257° |
| 2026-04-25 20:25 | 6.14443 | 99.60505 | 3416 ft | 268 kts | 231° |
| 2026-04-25 20:25 | 6.13289 | 99.59108 | 3347 ft | 253 kts | 236° |
| 2026-04-25 20:25 | 6.12828 | 99.57488 | 3286 ft | 239 kts | 276° |
| 2026-04-25 20:25 | 6.13465 | 99.56000 | 3238 ft | 234 kts | 317° |
| 2026-04-25 20:26 | 6.14866 | 99.55298 | 3191 ft | 226 kts | 359° |
| 2026-04-25 20:26 | 6.16328 | 99.55691 | 3144 ft | 219 kts | 41° |
| 2026-04-25 20:26 | 6.17230 | 99.56895 | 3104 ft | 218 kts | 62° |
| 2026-04-25 20:26 | 6.17974 | 99.58228 | 3057 ft | 219 kts | 62° |
| 2026-04-25 20:27 | 6.18718 | 99.59564 | 3012 ft | 219 kts | 62° |
| 2026-04-25 20:27 | 6.19458 | 99.60896 | 2968 ft | 218 kts | 62° |
| 2026-04-25 20:27 | 6.20197 | 99.62229 | 2912 ft | 219 kts | 62° |
| 2026-04-25 20:27 | 6.20936 | 99.63563 | 2724 ft | 216 kts | 62° |
| 2026-04-25 20:28 | 6.21675 | 99.64864 | 2458 ft | 214 kts | 56° |
| 2026-04-25 20:28 | 6.22753 | 99.65884 | 2145 ft | 214 kts | 36° |
| 2026-04-25 20:28 | 6.23965 | 99.66707 | 1888 ft | 204 kts | 36° |
| 2026-04-25 20:28 | 6.25081 | 99.67466 | 1616 ft | 183 kts | 37° |
| 2026-04-25 20:29 | 6.26084 | 99.68150 | 1384 ft | 166 kts | 37° |
| 2026-04-25 20:29 | 6.26986 | 99.68765 | 1192 ft | 150 kts | 36° |
| 2026-04-25 20:29 | 6.27826 | 99.69340 | 999 ft | 143 kts | 36° |
| 2026-04-25 20:29 | 6.28640 | 99.69903 | 822 ft | 140 kts | 36° |
| 2026-04-25 20:30 | 6.29450 | 99.70453 | 642 ft | 140 kts | 36° |
| 2026-04-25 20:30 | 6.30255 | 99.70998 | 465 ft | 140 kts | 35° |
| 2026-04-25 20:30 | 6.31050 | 99.71547 | 285 ft | 142 kts | 35° |
| 2026-04-25 20:30 | 6.31859 | 99.72105 | 110 ft | 140 kts | 34° |
| 2026-04-25 20:31 | 6.32648 | 99.72639 | 36 ft | 125 kts | 34° |
| 2026-04-25 20:31 | 6.33236 | 99.73045 | 38 ft | 78 kts | 34° |
| 2026-04-25 20:31 | 6.33556 | 99.73261 | 37 ft | 40 kts | 34° |
| 2026-04-25 20:31 | 6.33715 | 99.73363 | 37 ft | 12 kts | 2° |
| 2026-04-25 20:32 | 6.33772 | 99.73317 | 36 ft | 10 kts | 308° |
| 2026-04-25 20:32 | 6.33811 | 99.73261 | 35 ft | 9 kts | 304° |
| 2026-04-25 20:32 | 6.33847 | 99.73213 | 36 ft | 8 kts | 318° |
| 2026-04-25 20:32 | 6.33886 | 99.73209 | 36 ft | 4 kts | 38° |
| 2026-04-25 20:33 | 6.33949 | 99.73238 | 34 ft | 11 kts | 32° |
| 2026-04-25 20:33 | 6.34010 | 99.73280 | 36 ft | 10 kts | 36° |
| 2026-04-25 20:33 | 6.34057 | 99.73274 | 35 ft | 7 kts | 301° |
| 2026-04-25 20:33 | 6.34070 | 99.73252 | 36 ft | 3 kts | 308° |
| 2026-04-25 20:34 | 6.34074 | 99.73245 | 36 ft | 0 kts | 307° |